Airfield :







YOU CAN JOIN US ON...

 
LOGIN :

Register | Disclaimer

   EN    FR    IT 

 









Legend :    VFR   Marginal VFR   IFR   Intensive IFR   Very Intensive IFR
Visi :
Ceiling :
>= 8 km
>= 3000ft
5 to 8 km
1000 to 3000 ft
1500m to 5 km
500 to 1000 ft
800 to 1500m
200 to 500 ft
< 800m
< 200 ft
Symbols :   Thunderstorms  Fog  Heavy snow  Heavy precipitations  Wind > 20 kt






- Airport Elevation : 461 ft
- IATA code : YYT


CYYT - St John's Int

CURRENT METAR :
  • 161900Z 26010KT 220V290 15SM OVC008 13/12 A2989 RMK SF8 SLP127

EXPIRED METARs :
  • 161800Z 21009KT 10SM OVC008 13/12 A2988 RMK ST8 SLP124 DENSITY ALT 500FT
  • 161700Z 19011KT 15SM OVC008 14/12 A2990 RMK ST8 SLP129 DENSITY ALT 500FT

TAF AMD TAF CYYT
Valid from the 16 at 18:00 until the 17 at 18:00 UTC


161741Z 1618/1718 19012KT P6SM SCT008 OVC015
TEMPO 1618/1621 5SM -DZ BR OVC008
FM162100 30012KT 6SM -DZ BR BKN008 OVC020
TEMPO 1621/1624 P6SM NSW FEW006 OVC030
FM170000 34012G22KT P6SM BKN030
FM170300 35012KT P6SM SCT030
BECMG 1704/1706 35008KT
FM170700 35008KT P6SM FEW005
PROB30 1707/1712 BKN005
FM171500 06010KT P6SM FEW020 RMK NXT FCST BY 170000Z



MET'MAP, your aeronautical weather chart ! - Copyright ORBIFLY December 2007 - Disclaimer

ORBIFLY MET'MAP TEAM :

Programming & Development : Alexandra Zaïnal
Concept & Development : Baudouin d'Aumeries
Co-Development & Prog : Marc-Olivier Méhu
Technical & hardware support : Manuel Goepfert

Contact : metmap@orbifly.com




SOURCES & CREDITS :

   NOAA